createdAt,value
2018-11-28T00:03:37.269Z,0.80
2018-11-28T00:08:55.890Z,0.86
2018-11-28T00:14:14.441Z,0.81
2018-11-28T00:19:33.008Z,0.94
2018-11-28T00:24:51.725Z,0.79
2018-11-28T00:30:13.646Z,0.75
2018-11-28T00:35:32.865Z,0.86
2018-11-28T00:40:52.315Z,0.94
2018-11-28T00:46:10.824Z,0.85
2018-11-28T00:51:29.397Z,0.93
2018-11-28T00:56:48.098Z,1.05
2018-11-28T01:02:06.765Z,1.14
2018-11-28T01:07:25.425Z,1.05
2018-11-28T01:12:43.957Z,1.08
2018-11-28T01:18:02.460Z,1.06
2018-11-28T01:23:21.068Z,1.22
2018-11-28T01:28:39.598Z,1.18
2018-11-28T01:33:59.169Z,1.24
2018-11-28T01:39:17.691Z,1.27
2018-11-28T01:44:36.226Z,1.30
2018-11-28T01:49:55.333Z,1.30
2018-11-28T01:55:15.537Z,1.34
2018-11-28T02:00:34.741Z,1.39
2018-11-28T02:05:54.358Z,1.47
2018-11-28T02:11:13.597Z,1.47
2018-11-28T02:16:33.693Z,1.46
2018-11-28T02:21:52.451Z,1.56
2018-11-28T02:27:12.275Z,1.50
2018-11-28T02:32:30.841Z,1.61
2018-11-28T02:37:49.786Z,1.66
2018-11-28T02:43:08.463Z,1.80
2018-11-28T02:48:27.021Z,1.81
2018-11-28T03:28:32.538Z,1.78
2018-11-28T03:33:51.786Z,1.77
2018-11-28T03:39:10.571Z,1.70
2018-11-28T03:44:29.153Z,1.79
2018-11-28T03:49:47.640Z,1.80
2018-11-28T03:55:08.017Z,1.74
2018-11-28T04:00:26.577Z,1.77
2018-11-28T04:05:45.131Z,1.74
2018-11-28T04:11:04.177Z,1.65
2018-11-28T04:16:22.810Z,1.69
2018-11-28T04:21:42.548Z,1.71
2018-11-28T04:27:01.149Z,1.74
2018-11-28T04:32:20.538Z,1.85
2018-11-28T04:37:39.697Z,1.87
2018-11-28T04:42:58.267Z,1.79
2018-11-28T04:48:18.789Z,1.86
2018-11-28T04:53:38.206Z,1.89
2018-11-28T04:58:57.532Z,1.94
2018-11-28T05:04:16.827Z,2.17
2018-11-28T05:09:35.498Z,2.14
2018-11-28T05:14:54.636Z,2.28
2018-11-28T05:20:15.368Z,2.26
2018-11-28T05:25:34.956Z,2.27
2018-11-28T05:30:53.497Z,2.31
2018-11-28T05:36:12.034Z,2.44
2018-11-28T05:41:30.564Z,2.44
2018-11-28T05:46:49.103Z,2.51
2018-11-28T05:52:07.646Z,2.50
2018-11-28T05:57:26.145Z,2.53
2018-11-28T06:02:44.790Z,2.51
2018-11-28T06:08:03.485Z,2.56
2018-11-28T06:13:21.998Z,2.59
2018-11-28T06:18:40.587Z,2.69
2018-11-28T06:23:59.185Z,2.69
2018-11-28T06:29:17.813Z,2.71
2018-11-28T06:34:36.509Z,2.65
2018-11-28T06:39:55.035Z,2.74
2018-11-28T06:45:14.828Z,2.76
2018-11-28T06:50:33.396Z,2.75
2018-11-28T06:55:52.697Z,2.79
2018-11-28T07:01:11.230Z,2.82
2018-11-28T07:06:30.155Z,2.91
2018-11-28T07:11:48.749Z,2.90
2018-11-28T07:17:07.449Z,2.90
2018-11-28T07:22:26.592Z,2.94
2018-11-28T07:27:46.353Z,3.04
2018-11-28T07:33:05.599Z,3.04
2018-11-28T07:38:25.142Z,3.04
2018-11-28T07:43:46.096Z,3.04
2018-11-28T07:49:04.837Z,3.13
2018-11-28T07:54:23.331Z,3.08
2018-11-28T07:59:41.941Z,3.17
2018-11-28T08:05:01.457Z,3.18
2018-11-28T08:10:22.834Z,3.16
2018-11-28T08:15:41.377Z,3.28
2018-11-28T08:21:00.849Z,3.44
2018-11-28T08:26:19.449Z,3.56
2018-11-28T08:31:38.589Z,3.58
2018-11-28T08:36:57.130Z,3.68
2018-11-28T08:42:15.701Z,3.71
2018-11-28T08:47:35.588Z,3.76
2018-11-28T08:52:55.306Z,3.81
2018-11-28T08:58:13.837Z,3.88
2018-11-28T09:03:33.633Z,3.95
2018-11-28T09:08:53.095Z,4.05
2018-11-28T09:14:11.809Z,4.18
2018-11-28T09:19:30.343Z,4.27
2018-11-28T09:24:48.920Z,4.38
2018-11-28T09:30:18.476Z,4.46
2018-11-28T09:35:37.194Z,4.51
2018-11-28T09:40:56.130Z,4.49
2018-11-28T09:46:14.710Z,4.51
2018-11-28T09:51:33.229Z,4.61
2018-11-28T09:56:51.870Z,4.68
2018-11-28T10:02:10.553Z,4.70
2018-11-28T10:07:30.556Z,4.88
2018-11-28T10:12:49.146Z,4.91
2018-11-28T10:18:07.782Z,4.99
2018-11-28T10:23:26.388Z,5.10
2018-11-28T10:28:44.978Z,5.10
2018-11-28T10:34:03.621Z,5.13
2018-11-28T10:39:23.047Z,5.20
2018-11-28T10:44:42.570Z,5.31
2018-11-28T10:50:01.123Z,5.30
2018-11-28T10:55:21.442Z,5.40
2018-11-28T11:00:45.369Z,5.39
2018-11-28T11:07:06.982Z,5.51
2018-11-28T11:12:31.891Z,5.61
2018-11-28T11:17:51.175Z,5.55
2018-11-28T11:23:09.932Z,5.64
2018-11-28T11:28:28.533Z,5.69
2018-11-28T11:33:47.745Z,5.75
2018-11-28T11:39:08.105Z,5.81
2018-11-28T11:44:26.733Z,5.78
2018-11-28T11:49:45.272Z,5.83
2018-11-28T11:55:04.766Z,5.89
2018-11-28T12:00:25.378Z,5.96
2018-11-28T12:05:47.091Z,6.06
2018-11-28T12:11:06.925Z,6.19
2018-11-28T12:16:26.724Z,6.22
2018-11-28T12:21:45.247Z,6.23
2018-11-28T12:27:04.513Z,6.25
2018-11-28T12:32:23.160Z,6.27
2018-11-28T12:37:42.205Z,6.28
2018-11-28T12:43:01.334Z,6.27
2018-11-28T12:48:20.095Z,6.29
2018-11-28T12:53:38.857Z,6.31
2018-11-28T12:58:57.426Z,6.33
2018-11-28T13:04:16.711Z,6.40
2018-11-28T13:09:35.241Z,6.49
2018-11-28T13:14:53.966Z,6.51
2018-11-28T13:20:14.693Z,6.52
2018-11-28T13:25:33.316Z,6.51
2018-11-28T13:30:51.914Z,6.48
2018-11-28T13:36:10.657Z,6.51
2018-11-28T13:41:30.565Z,6.45
2018-11-28T13:46:49.048Z,6.44
2018-11-28T13:52:07.698Z,6.44
2018-11-28T13:57:26.318Z,6.45
2018-11-28T14:02:44.840Z,6.50
2018-11-28T14:08:03.490Z,6.49
2018-11-28T14:13:22.945Z,6.46
2018-11-28T14:18:41.644Z,6.46
2018-11-28T14:24:00.288Z,6.45
2018-11-28T14:29:18.880Z,6.37
2018-11-28T14:34:38.021Z,6.31
2018-11-28T14:39:57.366Z,6.30
2018-11-28T14:45:17.941Z,6.28
2018-11-28T14:50:36.834Z,6.31
2018-11-28T14:55:55.434Z,6.35
2018-11-28T15:01:13.964Z,6.34
2018-11-28T15:06:40.876Z,6.27
2018-11-28T15:11:59.554Z,6.12
2018-11-28T15:17:18.133Z,6.09
2018-11-28T15:22:36.672Z,6.11
2018-11-28T15:27:55.228Z,6.14
2018-11-28T15:33:13.882Z,6.12
2018-11-28T15:38:32.511Z,6.16
2018-11-28T15:43:52.062Z,6.13
2018-11-28T15:49:10.592Z,6.15
2018-11-28T15:54:29.295Z,6.13
2018-11-28T15:59:47.882Z,6.09
2018-11-28T16:05:07.761Z,6.13
2018-11-28T16:10:33.048Z,6.10
2018-11-28T16:15:53.190Z,5.98
2018-11-28T16:21:11.883Z,5.76
2018-11-28T16:26:30.505Z,5.59
2018-11-28T16:31:49.082Z,5.40
2018-11-28T16:37:08.078Z,5.27
2018-11-28T16:42:27.294Z,5.22
2018-11-28T16:47:46.076Z,5.16
2018-11-28T16:53:04.886Z,5.15
2018-11-28T16:58:23.488Z,5.17
2018-11-28T17:03:42.656Z,5.15
2018-11-28T17:09:02.187Z,5.14
2018-11-28T17:14:20.809Z,5.10
2018-11-28T17:19:40.261Z,5.10
2018-11-28T17:24:58.826Z,5.12
2018-11-28T17:30:19.815Z,5.12
2018-11-28T17:35:39.368Z,5.07
2018-11-28T17:40:57.873Z,5.05
2018-11-28T17:46:17.108Z,5.03
2018-11-28T17:51:35.723Z,5.07
2018-11-28T17:56:55.038Z,4.94
2018-11-28T18:02:13.638Z,4.86
2018-11-28T18:07:32.221Z,4.86
2018-11-28T18:13:12.628Z,4.85
2018-11-28T18:23:40.975Z,4.86
2018-11-28T18:28:59.146Z,4.94
2018-11-28T18:34:17.930Z,4.94
2018-11-28T18:39:37.235Z,5.01
2018-11-28T18:44:56.074Z,5.00
2018-11-28T18:50:15.010Z,5.10
2018-11-28T18:55:33.658Z,5.11
2018-11-28T19:00:52.295Z,5.24
2018-11-28T19:06:10.851Z,5.24
2018-11-28T19:11:30.086Z,5.24
2018-11-28T19:16:49.993Z,5.24
2018-11-28T19:22:09.191Z,5.27
2018-11-28T19:27:28.305Z,5.29
2018-11-28T19:32:46.957Z,5.33
2018-11-28T19:38:07.157Z,5.32
2018-11-28T19:43:26.320Z,5.34
2018-11-28T19:48:44.957Z,5.37
2018-11-28T19:54:05.439Z,5.39
2018-11-28T19:59:24.687Z,5.46
2018-11-28T20:04:43.881Z,5.48
2018-11-28T20:10:02.467Z,5.49
2018-11-28T20:15:23.513Z,5.55
2018-11-28T20:20:42.150Z,5.55
2018-11-28T20:26:00.704Z,5.59
2018-11-28T20:31:19.309Z,5.66
2018-11-28T20:36:37.926Z,5.73
2018-11-28T20:41:56.540Z,5.68
2018-11-28T20:47:15.120Z,5.72
2018-11-28T20:52:33.641Z,5.83
2018-11-28T20:57:52.921Z,5.83
2018-11-28T21:03:12.222Z,5.99
2018-11-28T21:08:30.869Z,6.09
2018-11-28T21:13:51.196Z,6.07
2018-11-28T21:19:10.459Z,6.06
2018-11-28T21:24:29.885Z,6.10
2018-11-28T21:29:48.486Z,6.10
2018-11-28T21:35:11.165Z,6.12
2018-11-28T21:40:30.319Z,6.19
2018-11-28T21:45:50.216Z,6.21
2018-11-28T21:51:09.652Z,6.26
2018-11-28T21:56:28.473Z,6.30
2018-11-28T22:01:47.604Z,6.29
2018-11-28T22:07:06.407Z,6.45
2018-11-28T22:12:24.950Z,6.45
2018-11-28T22:17:45.606Z,6.55
2018-11-28T22:23:04.207Z,6.69
2018-11-28T22:28:23.205Z,6.74
2018-11-28T22:33:41.742Z,6.67
2018-11-28T22:39:00.323Z,6.65
2018-11-28T22:44:18.784Z,6.66
2018-11-28T22:49:37.341Z,6.63
2018-11-28T22:54:55.885Z,6.70
2018-11-28T23:00:22.667Z,6.66
2018-11-28T23:05:44.795Z,6.64
2018-11-28T23:11:04.058Z,6.64
2018-11-28T23:16:22.657Z,6.67
2018-11-28T23:21:41.145Z,6.75
2018-11-28T23:26:59.653Z,6.76
2018-11-28T23:32:18.683Z,6.79
2018-11-28T23:37:37.516Z,6.84
2018-11-28T23:42:56.890Z,6.88
2018-11-28T23:48:15.404Z,6.90
2018-11-28T23:53:33.924Z,6.91
2018-11-28T23:58:54.121Z,6.95
